createdAt,value
2022-08-03T00:00:03.434Z,20.29
2022-08-03T00:01:04.461Z,20.27
2022-08-03T00:02:08.353Z,20.19
2022-08-03T00:03:05.784Z,20.22
2022-08-03T00:04:06.224Z,20.17
2022-08-03T00:05:06.418Z,20.24
2022-08-03T00:06:09.888Z,20.21
2022-08-03T00:07:07.101Z,20.15
2022-08-03T00:08:08.234Z,20.17
2022-08-03T00:09:09.062Z,20.18
2022-08-03T00:10:09.285Z,20.22
2022-08-03T00:11:10.314Z,20.15
2022-08-03T00:12:10.914Z,20.12
2022-08-03T00:13:11.845Z,20.21
2022-08-03T00:14:12.737Z,20.12
2022-08-03T00:15:19.891Z,20.19
2022-08-03T00:16:13.517Z,20.11
2022-08-03T00:17:14.099Z,20.14
2022-08-03T00:18:14.592Z,20.04
2022-08-03T00:19:14.787Z,20.07
2022-08-03T00:20:14.980Z,20.03
2022-08-03T00:21:16.001Z,20.07
2022-08-03T00:22:17.317Z,20.08
2022-08-03T00:23:17.262Z,20.03
2022-08-03T00:24:18.191Z,20.03
2022-08-03T00:25:18.111Z,19.99
2022-08-03T00:26:18.619Z,20
2022-08-03T00:27:22.593Z,19.97
2022-08-03T00:28:21.139Z,19.96
2022-08-03T00:29:19.882Z,19.99
2022-08-03T00:30:30.805Z,20
2022-08-03T00:31:52.320Z,20.04
2022-08-03T00:32:25.002Z,19.99
2022-08-03T00:33:22.168Z,19.97
2022-08-03T00:34:58.944Z,19.96
2022-08-03T00:35:55.804Z,20.02
2022-08-03T00:36:43.727Z,20
2022-08-03T00:37:47.236Z,19.94
2022-08-03T00:38:45.134Z,19.94
2022-08-03T00:39:45.327Z,19.85
2022-08-03T00:40:46.496Z,19.93
2022-08-03T00:41:46.787Z,19.94
2022-08-03T00:42:47.712Z,19.94
2022-08-03T00:43:47.939Z,19.92
2022-08-03T00:44:49.125Z,19.87
2022-08-03T00:45:50.617Z,19.93
2022-08-03T00:46:48.718Z,19.9
2022-08-03T00:47:49.315Z,19.84
2022-08-03T00:48:50.519Z,19.89
2022-08-03T00:49:50.874Z,19.74
2022-08-03T00:50:56.766Z,19.84
2022-08-03T00:51:52.549Z,19.9
2022-08-03T00:52:53.077Z,19.74
2022-08-03T00:53:53.273Z,19.85
2022-08-03T00:54:52.913Z,19.89
2022-08-03T00:55:54.406Z,19.77
2022-08-03T00:57:05.671Z,19.78
2022-08-03T00:57:55.589Z,19.79
2022-08-03T00:58:55.790Z,19.81
2022-08-03T00:59:55.714Z,19.78
2022-08-03T01:00:56.828Z,19.74
2022-08-03T01:01:56.807Z,19.77
2022-08-03T01:02:58.320Z,19.77
2022-08-03T01:03:58.235Z,19.66
2022-08-03T01:04:58.673Z,19.7
2022-08-03T01:05:58.867Z,19.64
2022-08-03T01:06:58.884Z,19.75
2022-08-03T01:08:00.114Z,19.66
2022-08-03T01:09:01.034Z,19.62
2022-08-03T01:10:01.950Z,19.66
2022-08-03T01:11:02.589Z,19.71
2022-08-03T01:12:16.985Z,19.75
2022-08-03T01:14:20.095Z,19.62
2022-08-03T01:14:39.208Z,19.64
2022-08-03T01:15:38.132Z,19.62
2022-08-03T01:16:43.102Z,19.79
2022-08-03T01:17:40.027Z,19.66
2022-08-03T01:18:40.063Z,19.77
2022-08-03T01:19:40.901Z,19.72
2022-08-03T01:20:41.794Z,19.64
2022-08-03T01:21:42.061Z,19.75
2022-08-03T01:22:42.515Z,19.77
2022-08-03T01:23:43.717Z,19.77
2022-08-03T01:24:46.341Z,19.71
2022-08-03T01:25:44.579Z,19.71
2022-08-03T01:26:45.137Z,19.62
2022-08-03T01:27:46.063Z,19.72
2022-08-03T01:28:45.701Z,19.66
2022-08-03T01:29:46.899Z,19.63
2022-08-03T01:30:47.391Z,19.59
2022-08-03T01:33:07.582Z,19.52
2022-08-03T01:33:56.041Z,19.53
2022-08-03T01:34:55.873Z,19.56
2022-08-03T01:35:57.099Z,19.52
2022-08-03T01:36:57.649Z,19.55
2022-08-03T01:37:57.865Z,19.52
2022-08-03T01:38:57.765Z,19.49
2022-08-03T01:39:57.985Z,19.48
2022-08-03T01:40:59.215Z,19.47
2022-08-03T01:41:59.436Z,19.55
2022-08-03T01:43:00.050Z,19.48
2022-08-03T01:44:37.382Z,19.64
2022-08-03T01:45:39.875Z,19.47
2022-08-03T01:46:37.878Z,19.55
2022-08-03T01:47:37.955Z,19.52
2022-08-03T01:48:39.459Z,19.52
2022-08-03T01:49:40.695Z,19.57
2022-08-03T01:50:41.340Z,19.52
2022-08-03T01:52:10.020Z,19.49
2022-08-03T01:52:42.423Z,19.52
2022-08-03T01:53:42.615Z,19.53
2022-08-03T01:54:42.916Z,19.57
2022-08-03T01:55:44.134Z,19.52
2022-08-03T01:56:44.055Z,19.56
2022-08-03T01:58:10.731Z,19.55
2022-08-03T01:58:45.654Z,19.55
2022-08-03T01:59:46.292Z,19.41
2022-08-03T02:00:47.959Z,19.47
2022-08-03T02:02:39.075Z,19.41
2022-08-03T02:02:56.984Z,19.44
2022-08-03T02:04:05.729Z,19.39
2022-08-03T02:04:58.008Z,19.45
2022-08-03T02:07:03.414Z,19.37
2022-08-03T02:07:20.464Z,19.38
2022-08-03T02:08:20.685Z,19.38
2022-08-03T02:09:20.908Z,19.37
2022-08-03T02:10:36.044Z,19.34
2022-08-03T02:11:21.008Z,19.32
2022-08-03T02:12:21.867Z,19.34
2022-08-03T02:13:21.793Z,19.29
2022-08-03T02:14:22.391Z,19.32
2022-08-03T02:15:23.676Z,19.32
2022-08-03T02:16:23.576Z,19.26
2022-08-03T02:17:44.355Z,19.22
2022-08-03T02:18:24.572Z,19.27
2022-08-03T02:19:25.764Z,19.2
2022-08-03T02:20:26.624Z,19.23
2022-08-03T02:22:02.522Z,19.16
2022-08-03T02:22:27.775Z,19.23
2022-08-03T02:23:28.270Z,19.09
2022-08-03T02:24:29.034Z,19.11
2022-08-03T02:25:29.734Z,19.22
2022-08-03T02:26:30.363Z,19.08
2022-08-03T02:27:31.265Z,19.16
2022-08-03T02:28:32.582Z,19.17
2022-08-03T02:29:45.974Z,19.11
2022-08-03T02:30:33.890Z,19.07
2022-08-03T02:31:34.191Z,19.11
2022-08-03T02:32:34.394Z,19.15
2022-08-03T02:33:34.890Z,19.08
2022-08-03T02:34:35.091Z,19.05
2022-08-03T02:35:35.099Z,19.09
2022-08-03T02:36:37.181Z,19.01
2022-08-03T02:37:36.678Z,19.07
2022-08-03T02:38:37.226Z,19
2022-08-03T02:39:37.730Z,19.04
2022-08-03T02:40:38.218Z,19.04
2022-08-03T02:41:40.108Z,19.07
2022-08-03T02:42:38.989Z,19.04
2022-08-03T02:44:11.834Z,19.11
2022-08-03T02:44:40.033Z,19.07
2022-08-03T02:45:45.720Z,19.07
2022-08-03T02:46:41.283Z,18.98
2022-08-03T02:47:59.550Z,19.09
2022-08-03T02:48:41.487Z,19.09
2022-08-03T02:49:57.447Z,19.07
2022-08-03T02:50:42.475Z,19.04
2022-08-03T02:51:43.697Z,19.05
2022-08-03T02:52:44.689Z,19.01
2022-08-03T02:53:44.610Z,19.01
2022-08-03T02:54:45.109Z,19.12
2022-08-03T02:55:51.672Z,19.11
2022-08-03T02:56:46.162Z,19.11
2022-08-03T02:57:46.382Z,19.15
2022-08-03T02:58:46.919Z,19.01
2022-08-03T02:59:46.843Z,19
2022-08-03T03:00:47.203Z,19.01
2022-08-03T03:01:47.573Z,18.96
2022-08-03T03:02:51.112Z,19.04
2022-08-03T03:03:51.488Z,19
2022-08-03T03:05:59.763Z,18.98
2022-08-03T03:06:55.998Z,18.98
2022-08-03T03:07:58.934Z,19.05
2022-08-03T03:09:00.061Z,18.94
2022-08-03T03:09:55.015Z,18.94
2022-08-03T03:11:01.399Z,18.86
2022-08-03T03:11:55.895Z,19.04
2022-08-03T03:12:56.232Z,19.04
2022-08-03T03:13:57.133Z,18.92
2022-08-03T03:14:58.104Z,18.89
2022-08-03T03:15:58.320Z,18.91
2022-08-03T03:17:04.010Z,18.91
2022-08-03T03:17:59.513Z,18.88
2022-08-03T03:19:00.459Z,18.91
2022-08-03T03:20:00.675Z,18.86
2022-08-03T03:21:00.895Z,18.86
2022-08-03T03:22:01.516Z,18.83
2022-08-03T03:23:01.781Z,18.91
2022-08-03T03:24:02.279Z,18.86
2022-08-03T03:25:03.931Z,18.91
2022-08-03T03:26:03.428Z,18.73
2022-08-03T03:27:03.723Z,18.92
2022-08-03T03:28:06.942Z,18.73
2022-08-03T03:29:05.161Z,18.88
2022-08-03T03:30:05.356Z,18.79
2022-08-03T03:31:05.699Z,18.76
2022-08-03T03:32:09.479Z,18.89
2022-08-03T03:33:06.909Z,18.74
2022-08-03T03:34:08.111Z,18.74
2022-08-03T03:35:08.291Z,18.74
2022-08-03T03:36:09.501Z,18.76
2022-08-03T03:37:10.201Z,18.74
2022-08-03T03:38:11.119Z,18.83
2022-08-03T03:39:21.766Z,18.71
2022-08-03T03:40:11.688Z,18.63
2022-08-03T03:41:11.610Z,18.79
2022-08-03T03:42:13.506Z,18.68
2022-08-03T03:43:13.870Z,18.7
2022-08-03T03:44:14.373Z,18.64
2022-08-03T03:45:14.274Z,18.66
2022-08-03T03:46:15.196Z,18.61
2022-08-03T03:47:17.136Z,18.64
2022-08-03T03:48:16.335Z,18.58
2022-08-03T03:49:17.662Z,18.66
2022-08-03T03:50:18.042Z,18.58
2022-08-03T03:51:18.387Z,18.55
2022-08-03T03:52:18.839Z,18.57
2022-08-03T03:53:19.763Z,18.6
2022-08-03T03:54:20.263Z,18.58
2022-08-03T03:55:20.172Z,18.48
2022-08-03T03:56:21.093Z,18.52
2022-08-03T03:57:21.095Z,18.49
2022-08-03T03:58:25.355Z,18.48
2022-08-03T03:59:22.999Z,18.53
2022-08-03T04:00:23.320Z,18.53
2022-08-03T04:01:24.105Z,18.48
2022-08-03T04:02:24.069Z,18.51
2022-08-03T04:03:25.274Z,18.53
2022-08-03T04:04:25.194Z,18.51
2022-08-03T04:05:26.112Z,18.58
2022-08-03T04:06:26.268Z,18.48
2022-08-03T04:07:27.273Z,18.58
2022-08-03T04:08:26.911Z,18.53
2022-08-03T04:09:28.112Z,18.49
2022-08-03T04:10:28.008Z,18.57
2022-08-03T04:11:37.416Z,18.57
2022-08-03T04:12:28.058Z,18.53
2022-08-03T04:13:28.593Z,18.53
2022-08-03T04:14:29.514Z,18.53
2022-08-03T04:15:30.011Z,18.55
2022-08-03T04:16:30.938Z,18.55
2022-08-03T04:17:31.711Z,18.61
2022-08-03T04:18:33.872Z,18.53
2022-08-03T04:19:32.094Z,18.51
2022-08-03T04:20:33.467Z,18.6
2022-08-03T04:21:34.228Z,18.61
2022-08-03T04:22:34.432Z,18.61
2022-08-03T04:23:34.930Z,18.6
2022-08-03T04:24:35.855Z,18.6
2022-08-03T04:25:36.052Z,18.6
2022-08-03T04:26:36.546Z,18.55
2022-08-03T04:27:36.879Z,18.57
2022-08-03T04:28:37.686Z,18.57
2022-08-03T04:29:48.421Z,18.63
2022-08-03T04:30:37.757Z,18.61
2022-08-03T04:31:37.976Z,18.58
2022-08-03T04:32:45.549Z,18.7
2022-08-03T04:33:40.385Z,18.55
2022-08-03T04:34:40.594Z,18.68
2022-08-03T04:36:07.971Z,18.6
2022-08-03T04:36:41.174Z,18.6
2022-08-03T04:37:42.186Z,18.66
2022-08-03T04:38:42.112Z,18.66
2022-08-03T04:39:42.713Z,18.66
2022-08-03T04:40:42.892Z,18.63
2022-08-03T04:42:13.858Z,18.64
2022-08-03T04:42:44.441Z,18.67
2022-08-03T04:43:45.046Z,18.74
2022-08-03T04:44:45.540Z,18.71
2022-08-03T04:45:45.367Z,18.67
2022-08-03T04:46:53.079Z,18.71
2022-08-03T04:47:46.488Z,18.74
2022-08-03T04:48:50.347Z,18.79
2022-08-03T04:49:48.530Z,18.74
2022-08-03T04:50:48.750Z,18.73
2022-08-03T04:51:48.954Z,18.74
2022-08-03T04:52:49.462Z,18.79
2022-08-03T04:53:50.153Z,18.76
2022-08-03T04:54:56.601Z,18.79
2022-08-03T04:55:51.097Z,18.81
2022-08-03T04:56:52.133Z,18.81
2022-08-03T04:57:52.709Z,18.91
2022-08-03T04:58:53.209Z,18.94
2022-08-03T05:00:02.907Z,18.86
2022-08-03T05:00:55.351Z,18.88
2022-08-03T05:01:57.889Z,18.86
2022-08-03T05:02:56.123Z,18.91
2022-08-03T05:03:56.470Z,18.88
2022-08-03T05:04:56.391Z,19.04
2022-08-03T05:06:11.749Z,19.05
2022-08-03T05:07:12.553Z,18.96
2022-08-03T05:08:28.505Z,19.01
2022-08-03T05:09:52.944Z,19.05
2022-08-03T05:10:27.461Z,19.08
2022-08-03T05:11:27.801Z,19.12
2022-08-03T05:12:33.227Z,19.01
2022-08-03T05:13:28.173Z,19.09
2022-08-03T05:14:34.379Z,19.05
2022-08-03T05:15:29.579Z,19.23
2022-08-03T05:16:29.698Z,19.2
2022-08-03T05:17:30.346Z,19.23
2022-08-03T05:18:30.496Z,19.24
2022-08-03T05:19:31.703Z,19.23
2022-08-03T05:20:31.904Z,19.27
2022-08-03T05:21:57.938Z,19.32
2022-08-03T05:22:33.137Z,19.29
2022-08-03T05:23:33.341Z,19.38
2022-08-03T05:24:33.267Z,19.42
2022-08-03T05:25:34.469Z,19.41
2022-08-03T05:26:35.687Z,19.47
2022-08-03T05:27:35.627Z,19.45
2022-08-03T05:28:36.359Z,19.53
2022-08-03T05:29:36.259Z,19.52
2022-08-03T05:30:40.342Z,19.57
2022-08-03T05:31:38.286Z,19.6
2022-08-03T05:32:38.784Z,19.63
2022-08-03T05:33:38.694Z,19.6
2022-08-03T05:34:39.639Z,19.63
2022-08-03T05:36:08.956Z,19.77
2022-08-03T05:36:40.883Z,19.7
2022-08-03T05:37:55.139Z,19.75
2022-08-03T05:38:43.490Z,19.72
2022-08-03T05:39:43.716Z,19.75
2022-08-03T05:41:20.689Z,19.77
2022-08-03T05:41:49.086Z,19.89
2022-08-03T05:42:49.282Z,19.75
2022-08-03T05:43:49.782Z,19.82
2022-08-03T05:44:49.709Z,19.92
2022-08-03T05:46:13.360Z,19.94
2022-08-03T05:46:51.590Z,19.93
2022-08-03T05:47:52.497Z,19.99
2022-08-03T05:48:53.330Z,19.99
2022-08-03T05:49:54.490Z,20.02
2022-08-03T05:50:54.413Z,20.1
2022-08-03T05:52:17.280Z,20.14
2022-08-03T05:52:56.014Z,20.14
2022-08-03T05:53:56.339Z,20.21
2022-08-03T05:55:02.773Z,20.19
2022-08-03T05:56:16.165Z,20.18
2022-08-03T05:56:58.891Z,20.19
2022-08-03T05:58:02.774Z,20.29
2022-08-03T05:59:37.463Z,20.3
2022-08-03T06:00:08.139Z,20.36
2022-08-03T06:01:08.313Z,20.37
2022-08-03T06:02:08.804Z,20.34
2022-08-03T06:03:08.938Z,20.53
2022-08-03T06:04:09.486Z,20.56
2022-08-03T06:05:10.684Z,20.49
2022-08-03T06:06:10.613Z,20.52
2022-08-03T06:07:11.600Z,20.6
2022-08-03T06:08:16.049Z,20.71
2022-08-03T06:09:13.104Z,20.64
2022-08-03T06:10:42.590Z,20.73
2022-08-03T06:11:14.796Z,20.71
2022-08-03T06:12:20.326Z,20.83
2022-08-03T06:13:15.443Z,20.85
2022-08-03T06:14:15.944Z,20.93
2022-08-03T06:15:17.357Z,21.01
2022-08-03T06:16:16.986Z,20.93
2022-08-03T06:17:18.517Z,21
2022-08-03T06:18:17.864Z,21.03
2022-08-03T06:19:19.178Z,21.07
2022-08-03T06:20:20.111Z,21.13
2022-08-03T06:21:23.347Z,21.14
2022-08-03T06:22:21.851Z,21.25
2022-08-03T06:23:55.591Z,21.3
2022-08-03T06:24:25.265Z,21.32
2022-08-03T06:25:21.570Z,21.4
2022-08-03T06:26:22.788Z,21.4
2022-08-03T06:27:38.054Z,21.44
2022-08-03T06:28:58.210Z,21.53
2022-08-03T06:29:46.860Z,21.54
2022-08-03T06:30:50.211Z,21.63
2022-08-03T06:31:47.538Z,21.58
2022-08-03T06:32:57.526Z,21.62
2022-08-03T06:34:36.996Z,21.72
2022-08-03T06:34:53.926Z,21.69
2022-08-03T06:35:54.849Z,21.68
2022-08-03T06:37:02.460Z,21.78
2022-08-03T06:37:55.977Z,21.84
2022-08-03T06:38:56.182Z,21.81
2022-08-03T06:39:56.543Z,21.88
2022-08-03T06:40:57.168Z,21.89
2022-08-03T06:41:58.492Z,21.92
2022-08-03T06:43:00.007Z,22.01
2022-08-03T06:44:10.644Z,22.06
2022-08-03T06:45:00.931Z,22.04
2022-08-03T06:46:00.554Z,22.14
2022-08-03T06:47:01.493Z,22.12
2022-08-03T06:48:02.478Z,22.14
2022-08-03T06:49:02.427Z,22.15
2022-08-03T06:50:28.897Z,22.22
2022-08-03T06:52:07.078Z,22.36
2022-08-03T06:52:49.903Z,22.51
2022-08-03T06:53:50.799Z,22.44
2022-08-03T06:54:50.998Z,22.47
2022-08-03T06:55:55.471Z,22.55
2022-08-03T06:56:51.995Z,22.49
2022-08-03T06:57:52.330Z,22.59
2022-08-03T06:58:56.305Z,22.55
2022-08-03T07:00:15.823Z,22.74
2022-08-03T07:01:04.382Z,22.78
2022-08-03T07:02:04.453Z,22.77
2022-08-03T07:03:05.258Z,22.83
2022-08-03T07:04:06.179Z,22.95
2022-08-03T07:05:07.144Z,22.93
2022-08-03T07:06:09.417Z,22.93
2022-08-03T07:07:07.772Z,22.99
2022-08-03T07:08:09.287Z,23.1
2022-08-03T07:09:09.604Z,23.1
2022-08-03T07:10:09.826Z,23.18
2022-08-03T07:11:11.173Z,23.28
2022-08-03T07:12:13.738Z,23.39
2022-08-03T07:13:12.123Z,23.32
2022-08-03T07:14:12.957Z,23.45
2022-08-03T07:15:56.281Z,23.44
2022-08-03T07:16:12.839Z,23.45
2022-08-03T07:17:17.418Z,23.47
2022-08-03T07:18:13.644Z,23.59
2022-08-03T07:19:14.402Z,23.71
2022-08-03T07:20:14.614Z,23.74
2022-08-03T07:21:15.575Z,23.86
2022-08-03T07:22:17.295Z,23.84
2022-08-03T07:23:25.287Z,23.85
2022-08-03T07:24:17.622Z,23.88
2022-08-03T07:25:17.577Z,23.88
2022-08-03T07:26:20.310Z,23.96
2022-08-03T07:27:19.531Z,24.09
2022-08-03T07:31:22.286Z,24.32
2022-08-03T07:32:26.620Z,24.34
2022-08-03T07:33:23.190Z,24.31
2022-08-03T07:34:23.540Z,24.29
2022-08-03T07:35:26.193Z,24.43
2022-08-03T07:36:25.357Z,24.47
2022-08-03T07:37:24.672Z,24.55
2022-08-03T07:38:27.236Z,24.51
2022-08-03T07:39:25.853Z,24.61
2022-08-03T07:40:32.406Z,24.69
2022-08-03T07:41:27.284Z,24.82
2022-08-03T07:42:28.618Z,24.85
2022-08-03T07:43:29.548Z,24.99
2022-08-03T07:44:29.203Z,25.03
2022-08-03T07:45:30.840Z,25.04
2022-08-03T07:46:32.754Z,25.11
2022-08-03T07:47:53.375Z,25.15
2022-08-03T07:48:32.778Z,25.22
2022-08-03T07:49:33.213Z,25.18
2022-08-03T07:50:33.637Z,25.29
2022-08-03T07:51:34.671Z,25.26
2022-08-03T07:52:35.174Z,25.21
2022-08-03T07:53:47.919Z,25.29
2022-08-03T07:54:37.227Z,25.22
2022-08-03T07:55:37.428Z,25.34
2022-08-03T07:56:37.934Z,25.33
2022-08-03T07:57:38.445Z,25.4
2022-08-03T07:58:38.361Z,25.15
2022-08-03T08:00:07.231Z,24.99
2022-08-03T08:00:38.856Z,25.18
2022-08-03T08:01:39.565Z,25.15
2022-08-03T08:02:39.967Z,25.01
2022-08-03T08:03:58.516Z,25.11
2022-08-03T08:04:40.736Z,25.22
2022-08-03T08:05:41.384Z,25.21
2022-08-03T08:06:42.617Z,25.25
2022-08-03T08:07:42.275Z,25.22
2022-08-03T08:08:42.765Z,25.21
2022-08-03T08:09:43.684Z,25.3
2022-08-03T08:10:59.198Z,25.43
2022-08-03T08:11:46.909Z,25.41
2022-08-03T08:12:48.118Z,25.46
2022-08-03T08:13:48.779Z,25.43
2022-08-03T08:14:49.441Z,25.43
2022-08-03T08:15:52.066Z,25.33
2022-08-03T08:16:50.290Z,25.36
2022-08-03T08:17:51.455Z,25.4
2022-08-03T08:18:51.438Z,25.37
2022-08-03T08:19:59.807Z,25.51
2022-08-03T08:20:52.766Z,25.66
2022-08-03T08:22:12.014Z,25.77
2022-08-03T08:23:56.250Z,25.83
2022-08-03T08:24:26.453Z,25.88
2022-08-03T08:25:25.470Z,25.93
2022-08-03T08:26:24.404Z,25.89
2022-08-03T08:27:25.625Z,25.88
2022-08-03T08:28:43.517Z,25.83
2022-08-03T08:30:04.840Z,25.7
2022-08-03T08:30:44.343Z,25.76
2022-08-03T08:31:45.385Z,25.85
2022-08-03T08:32:45.711Z,25.93
2022-08-03T08:34:16.682Z,25.93
2022-08-03T08:34:47.321Z,25.98
2022-08-03T08:35:48.262Z,26.08
2022-08-03T08:36:49.209Z,26.13
2022-08-03T08:37:58.363Z,26.27
2022-08-03T08:38:50.719Z,26.36
2022-08-03T08:39:50.956Z,26.31
2022-08-03T08:40:52.196Z,26.45
2022-08-03T08:41:56.312Z,26.46
2022-08-03T08:43:04.156Z,26.53
2022-08-03T08:44:00.502Z,26.56
2022-08-03T08:44:54.922Z,26.64
2022-08-03T08:45:55.158Z,26.73
2022-08-03T08:46:56.409Z,26.78
2022-08-03T08:48:06.592Z,26.79
2022-08-03T08:49:00.219Z,26.91
2022-08-03T08:50:30.135Z,26.83
2022-08-03T08:50:59.090Z,26.82
2022-08-03T08:52:29.658Z,26.85
2022-08-03T08:53:33.185Z,26.92
2022-08-03T08:54:30.568Z,26.93
2022-08-03T08:56:00.826Z,26.91
2022-08-03T08:56:32.107Z,26.91
2022-08-03T08:57:48.431Z,27.04
2022-08-03T08:58:33.826Z,27.03
2022-08-03T08:59:57.827Z,27.13
2022-08-03T09:00:35.770Z,27.11
2022-08-03T09:01:36.431Z,27.22
2022-08-03T09:02:36.090Z,27.4
2022-08-03T09:03:36.814Z,27.61
2022-08-03T09:04:37.742Z,27.68
2022-08-03T09:06:01.404Z,27.88
2022-08-03T09:06:39.037Z,28.03
2022-08-03T09:07:40.104Z,28.1
2022-08-03T09:08:40.616Z,28.34
2022-08-03T09:10:18.621Z,28.56
2022-08-03T09:10:41.825Z,28.67
2022-08-03T09:12:41.783Z,28.94
2022-08-03T09:12:59.396Z,28.96
2022-08-03T09:13:59.676Z,28.92
2022-08-03T09:15:21.535Z,28.89
2022-08-03T09:16:06.836Z,28.83
2022-08-03T09:17:01.768Z,28.77
2022-08-03T09:18:01.357Z,28.67
2022-08-03T09:19:01.717Z,28.64
2022-08-03T09:20:08.684Z,28.53
2022-08-03T09:21:31.540Z,28.43
2022-08-03T09:22:03.175Z,28.55
2022-08-03T09:23:59.359Z,28.67
2022-08-03T09:25:32.398Z,28.83
2022-08-03T09:26:32.383Z,29
2022-08-03T09:27:33.319Z,29.31
2022-08-03T09:29:15.308Z,29.98
2022-08-03T09:29:34.439Z,29.95
2022-08-03T09:30:40.895Z,30.14
2022-08-03T09:31:35.451Z,30.23
2022-08-03T09:32:35.790Z,30.58
2022-08-03T09:33:41.962Z,30.74
2022-08-03T09:34:37.328Z,30.93
2022-08-03T09:36:04.165Z,31.25
2022-08-03T09:37:04.082Z,31.28
2022-08-03T09:38:18.760Z,31.47
2022-08-03T09:39:04.990Z,31.6
2022-08-03T09:40:06.300Z,31.79
2022-08-03T09:41:07.112Z,31.79
2022-08-03T09:42:07.350Z,31.85
2022-08-03T09:43:07.361Z,31.85
2022-08-03T09:44:07.884Z,31.81
2022-08-03T09:45:08.374Z,31.77
2022-08-03T09:46:09.099Z,31.74
2022-08-03T09:47:09.976Z,31.7
2022-08-03T09:48:10.530Z,31.79
2022-08-03T09:49:17.412Z,32
2022-08-03T09:50:11.604Z,32.24
2022-08-03T09:52:30.382Z,32.72
2022-08-03T09:53:04.452Z,32.91
2022-08-03T09:54:20.416Z,33.01
2022-08-03T09:56:33.166Z,33.32
2022-08-03T09:56:53.550Z,33.53
2022-08-03T09:57:53.949Z,33.67
2022-08-03T09:58:54.194Z,33.75
2022-08-03T10:00:08.120Z,33.95
2022-08-03T10:00:56.037Z,34.04
2022-08-03T10:01:56.213Z,34.16
2022-08-03T10:02:56.436Z,34.19
2022-08-03T10:04:10.376Z,34.28
2022-08-03T10:04:58.044Z,34.4
2022-08-03T10:06:05.059Z,34.51
2022-08-03T10:06:59.418Z,34.65
2022-08-03T10:08:00.262Z,34.71
2022-08-03T10:09:00.888Z,34.76
2022-08-03T10:10:32.616Z,34.53
2022-08-03T10:11:02.267Z,34.35
2022-08-03T10:12:02.919Z,34.09
2022-08-03T10:13:03.367Z,33.91
2022-08-03T10:14:07.601Z,33.65
2022-08-03T10:15:04.569Z,33.69
2022-08-03T10:16:33.749Z,33.7
2022-08-03T10:17:40.447Z,33.81
2022-08-03T10:18:37.048Z,33.98
2022-08-03T10:19:35.715Z,34.19
2022-08-03T10:20:36.631Z,34.29
2022-08-03T10:21:37.576Z,34.48
2022-08-03T10:22:38.525Z,34.71
2022-08-03T10:23:40.059Z,34.78
2022-08-03T10:24:38.976Z,34.62
2022-08-03T10:25:39.886Z,34.48
2022-08-03T10:26:50.328Z,34.31
2022-08-03T10:27:40.321Z,34.13
2022-08-03T10:28:45.716Z,34.1
2022-08-03T10:29:40.998Z,33.97
2022-08-03T10:30:41.503Z,33.91
2022-08-03T10:31:58.604Z,33.82
2022-08-03T10:32:41.954Z,33.73
2022-08-03T10:33:58.468Z,33.7
2022-08-03T10:34:45.938Z,33.82
2022-08-03T10:35:43.456Z,33.82
2022-08-03T10:36:44.111Z,33.98
2022-08-03T10:38:02.436Z,34.24
2022-08-03T10:38:50.134Z,34.19
2022-08-03T10:39:51.381Z,33.91
2022-08-03T10:40:59.583Z,33.69
2022-08-03T10:41:53.468Z,33.51
2022-08-03T10:42:52.169Z,33.63
2022-08-03T10:43:52.692Z,33.66
2022-08-03T10:44:54.623Z,33.76
2022-08-03T10:45:53.574Z,33.88
2022-08-03T10:46:53.485Z,34
2022-08-03T10:47:54.720Z,33.89
2022-08-03T10:48:54.908Z,33.81
2022-08-03T10:49:55.397Z,33.69
2022-08-03T10:50:55.759Z,33.53
2022-08-03T10:52:00.412Z,33.38
2022-08-03T10:52:57.190Z,33.4
2022-08-03T10:54:02.509Z,33.51
2022-08-03T10:55:00.248Z,33.58
2022-08-03T10:55:58.890Z,33.4
2022-08-03T10:57:13.756Z,33.51
2022-08-03T10:58:11.294Z,33.57
2022-08-03T10:59:28.621Z,33.66
2022-08-03T11:00:18.030Z,33.63
2022-08-03T11:01:18.524Z,33.6
2022-08-03T11:02:19.678Z,33.26
2022-08-03T11:03:19.612Z,33.08
2022-08-03T11:04:22.470Z,33.03
2022-08-03T11:05:21.592Z,33.13
2022-08-03T11:06:21.113Z,33.26
2022-08-03T11:07:21.830Z,33.38
2022-08-03T11:08:20.933Z,33.45
2022-08-03T11:09:21.638Z,33.63
2022-08-03T11:10:22.216Z,33.66
2022-08-03T11:11:22.437Z,33.75
2022-08-03T11:12:32.058Z,33.65
2022-08-03T11:13:22.941Z,33.75
2022-08-03T11:14:23.513Z,33.53
2022-08-03T11:15:23.682Z,33.22
2022-08-03T11:16:28.125Z,32.98
2022-08-03T11:17:25.690Z,32.66
2022-08-03T11:18:27.668Z,32.53
2022-08-03T11:19:28.401Z,32.53
2022-08-03T11:20:27.242Z,32.53
2022-08-03T11:21:30.973Z,32.79
2022-08-03T11:22:29.518Z,32.95
2022-08-03T11:24:09.389Z,33.17
2022-08-03T11:24:30.894Z,33.28
2022-08-03T11:25:59.319Z,33.45
2022-08-03T11:26:31.532Z,33.38
2022-08-03T11:27:31.770Z,33.54
2022-08-03T11:28:33.137Z,33.65
2022-08-03T11:29:32.586Z,33.66
2022-08-03T11:30:33.282Z,33.77
2022-08-03T11:32:04.505Z,33.81
2022-08-03T11:32:35.789Z,33.95
2022-08-03T11:33:36.298Z,34.06
2022-08-03T11:34:36.533Z,34.16
2022-08-03T11:35:36.767Z,34.11
2022-08-03T11:36:38.483Z,34.18
2022-08-03T11:38:04.755Z,33.85
2022-08-03T11:38:38.643Z,33.77
2022-08-03T11:39:39.271Z,33.81
2022-08-03T11:40:39.915Z,33.58
2022-08-03T11:41:50.978Z,33.32
2022-08-03T11:42:41.217Z,33.17
2022-08-03T11:43:41.918Z,33.17
2022-08-03T11:44:48.019Z,33.2
2022-08-03T11:45:42.663Z,33.36
2022-08-03T11:46:42.308Z,33.47
2022-08-03T11:47:56.604Z,33.61
2022-08-03T11:48:44.817Z,33.7
2022-08-03T11:49:45.444Z,33.85
2022-08-03T11:50:45.369Z,33.89
2022-08-03T11:51:46.325Z,33.88
2022-08-03T11:52:46.549Z,33.95
2022-08-03T11:53:47.796Z,34.07
2022-08-03T11:54:57.562Z,34.1
2022-08-03T11:55:48.548Z,34.13
2022-08-03T11:56:48.910Z,34.26
2022-08-03T11:59:24.777Z,34.56
2022-08-03T11:59:41.419Z,34.62
2022-08-03T12:00:42.833Z,34.53
2022-08-03T12:01:42.504Z,34.46
2022-08-03T12:02:44.328Z,34.1
2022-08-03T12:03:44.227Z,33.85
2022-08-03T12:04:44.236Z,33.4
2022-08-03T12:05:52.645Z,33.15
2022-08-03T12:06:52.676Z,33
2022-08-03T12:08:10.806Z,32.83
2022-08-03T12:08:47.017Z,32.83
2022-08-03T12:09:47.526Z,32.76
2022-08-03T12:10:48.513Z,32.79
2022-08-03T12:12:06.094Z,32.57
2022-08-03T12:12:52.389Z,32.54
2022-08-03T12:14:54.026Z,32.56
2022-08-03T12:15:10.935Z,32.53
2022-08-03T12:16:11.327Z,32.68
2022-08-03T12:17:11.837Z,32.75
2022-08-03T12:18:16.999Z,32.64
2022-08-03T12:19:13.059Z,32.67
2022-08-03T12:20:14.768Z,32.73
2022-08-03T12:21:16.414Z,32.97
2022-08-03T12:22:17.363Z,33.04
2022-08-03T12:23:17.875Z,33.26
2022-08-03T12:24:17.799Z,33.45
2022-08-03T12:25:38.510Z,33.65
2022-08-03T12:26:19.045Z,33.6
2022-08-03T12:27:20.009Z,33.55
2022-08-03T12:28:49.360Z,33.31
2022-08-03T12:29:21.197Z,33.23
2022-08-03T12:30:21.832Z,33.09
2022-08-03T12:31:22.576Z,32.95
2022-08-03T12:32:22.798Z,32.79
2022-08-03T12:33:24.662Z,32.86
2022-08-03T12:34:24.245Z,32.82
2022-08-03T12:35:24.516Z,32.82
2022-08-03T12:36:24.472Z,32.73
2022-08-03T12:37:28.745Z,32.67
2022-08-03T12:38:26.323Z,32.66
2022-08-03T12:39:26.439Z,32.67
2022-08-03T12:40:32.527Z,32.66
2022-08-03T12:41:27.247Z,32.83
2022-08-03T12:42:28.098Z,32.94
2022-08-03T12:43:39.915Z,33.17
2022-08-03T12:44:29.430Z,33
2022-08-03T12:45:29.356Z,32.86
2022-08-03T12:46:31.060Z,32.83
2022-08-03T12:47:31.443Z,32.86
2022-08-03T12:48:35.000Z,32.93
2022-08-03T12:49:33.626Z,33.09
2022-08-03T12:50:34.123Z,33.28
2022-08-03T12:51:34.427Z,33.53
2022-08-03T12:52:34.941Z,33.77
2022-08-03T12:53:36.049Z,33.73
2022-08-03T12:54:36.077Z,33.7
2022-08-03T12:56:06.362Z,33.81
2022-08-03T12:56:37.647Z,33.85
2022-08-03T12:57:37.587Z,33.95
2022-08-03T12:58:38.223Z,33.97
2022-08-03T12:59:41.681Z,33.97
2022-08-03T13:00:42.656Z,33.97
2022-08-03T13:01:56.183Z,34.09
2022-08-03T13:02:46.614Z,34.07
2022-08-03T13:04:00.253Z,34.18
2022-08-03T13:04:56.906Z,34.33
2022-08-03T13:05:57.875Z,34.46
2022-08-03T13:07:14.967Z,34.53
2022-08-03T13:08:00.058Z,34.63
2022-08-03T13:09:00.637Z,34.69
2022-08-03T13:10:07.974Z,34.79
2022-08-03T13:11:01.095Z,34.85
2022-08-03T13:12:08.964Z,34.83
2022-08-03T13:13:09.056Z,34.83
2022-08-03T13:14:16.927Z,34.93
2022-08-03T13:15:11.201Z,34.85
2022-08-03T13:16:15.842Z,34.78
2022-08-03T13:17:11.377Z,34.63
2022-08-03T13:18:17.699Z,34.46
2022-08-03T13:19:20.941Z,34.21